YMEL weather

Melton Airport
Melton, Victoria, Australia

Public forecast

Using degrees Celsius for public forecast. Weather courtesy of forecast.io.

Closest aviation weather report (METAR) to Melton Airport

Closest report is Melbourne International Airport, 13.6 nm (25.1 km) ESE. Retrieved 2019/10/19 13:30 UTC (0 seconds ago):

YMML 191330Z 31007KT CAVOK 07/04 Q1022 NOSIG

Closest aviation forecast (TAF) to Melton Airport

Closest forecast is Melbourne International Airport, 13.6 nm (25.1 km) ESE. Retrieved 2019/10/19 12:37 UTC (42 minutes ago):

TAF YMML 191120Z 1912/2018 28010KT 9999 SCT045 FM191800 26010KT 9999 BKN040 FM200100 22014KT 9999 BKN045 FM200800 21010KT 9999 BKN020 FM201200 25008KT 9999 BKN015